Time;durP1;ratioP1;P1;durP2;ratioP2;P2;SDS_P1;SDS_P2;PMS_P1;PMS_P2;Temp;Humidity;BMP_temperature;BMP_pressure;BME280_temperature;BME280_humidity;BME280_pressure;Samples;Min_cycle;Max_cycle;Signal;HPM_P1;HPM_P2
2021/05/20 00:02:21;;;;;;;35.28;26.70;;;358.80;2329.60;;;;;;5071782;28;20044;-84
2021/05/20 00:04:47;;;;;;;22.33;19.65;;;358.80;2329.60;;;;;;5074234;28;20031;-84
2021/05/20 00:07:13;;;;;;;23.52;20.08;;;358.80;2329.60;;;;;;5072709;28;20439;-85
2021/05/20 00:09:38;;;;;;;23.40;20.50;;;358.70;2329.60;;;;;;5072591;28;20422;-85
2021/05/20 00:12:04;;;;;;;24.83;19.27;;;358.70;2329.60;;;;;;5081599;28;20025;-85
2021/05/20 00:14:30;;;;;;;27.05;21.50;;;358.60;2329.60;;;;;;5072424;28;20021;-85
2021/05/20 00:16:56;;;;;;;26.13;20.60;;;358.60;2329.60;;;;;;5073824;28;20078;-85
2021/05/20 00:19:22;;;;;;;27.10;22.05;;;358.60;2329.60;;;;;;5088046;28;20630;-85
2021/05/20 00:21:48;;;;;;;44.17;24.25;;;358.60;2329.60;;;;;;5084304;28;20037;-86
2021/05/20 00:24:14;;;;;;;27.42;22.30;;;358.70;2329.60;;;;;;5072277;28;20021;-85
2021/05/20 00:26:40;;;;;;;27.40;20.45;;;358.70;2329.60;;;;;;5066844;28;20025;-85
2021/05/20 00:29:06;;;;;;;22.13;18.98;;;358.70;2329.60;;;;;;5066480;28;20020;-85
2021/05/20 00:31:32;;;;;;;23.10;18.45;;;358.80;2329.60;;;;;;5090277;28;20404;-85
2021/05/20 00:33:57;;;;;;;20.98;17.20;;;358.80;2329.60;;;;;;5064087;28;20045;-86
2021/05/20 00:36:23;;;;;;;20.95;17.38;;;358.80;2329.60;;;;;;5067784;28;20047;-86
2021/05/20 00:38:49;;;;;;;20.92;17.17;;;358.80;2329.60;;;;;;5052756;28;20450;-85
2021/05/20 00:41:14;;;;;;;21.77;17.08;;;358.80;2329.60;;;;;;5072387;28;20031;-86
2021/05/20 00:43:41;;;;;;;22.88;18.48;;;358.80;2329.60;;;;;;5059954;28;20374;-86
2021/05/20 00:46:07;;;;;;;25.90;20.58;;;358.80;2329.60;;;;;;5072310;28;20029;-85
2021/05/20 00:48:33;;;;;;;27.35;19.48;;;358.70;2329.60;;;;;;5058105;28;20037;-86
2021/05/20 00:50:59;;;;;;;22.88;18.13;;;358.80;2329.60;;;;;;5073194;28;20150;-85
2021/05/20 00:53:25;;;;;;;24.30;18.73;;;358.80;2329.60;;;;;;5072328;28;20058;-85
2021/05/20 00:55:52;;;;;;;32.50;22.35;;;358.70;2329.60;;;;;;5071910;28;20021;-85
2021/05/20 00:58:19;;;;;;;32.28;24.55;;;358.70;2329.60;;;;;;5079770;28;20032;-86
2021/05/20 01:00:45;;;;;;;29.92;23.55;;;358.60;2329.60;;;;;;5069954;28;20700;-85
2021/05/20 01:03:11;;;;;;;29.58;22.17;;;358.60;2329.60;;;;;;5063331;28;20054;-85
2021/05/20 01:05:36;;;;;;;26.02;19.40;;;358.50;2329.60;;;;;;5066402;28;20038;-85
2021/05/20 01:08:02;;;;;;;26.13;20.52;;;358.40;2329.60;;;;;;5064988;28;20029;-85
2021/05/20 01:10:28;;;;;;;25.00;18.42;;;358.40;2329.60;;;;;;5071646;28;20033;-85
2021/05/20 01:12:54;;;;;;;21.50;17.50;;;358.50;2329.60;;;;;;5052712;28;20033;-85
2021/05/20 01:15:24;;;;;;;24.08;17.55;;;358.50;2329.60;;;;;;5064139;28;20021;-85
2021/05/20 01:17:57;;;;;;;24.13;19.13;;;358.50;2329.60;;;;;;5069235;28;20053;-85
2021/05/20 01:20:25;;;;;;;24.17;18.10;;;358.50;2329.60;;;;;;5053207;28;20138;-85
2021/05/20 01:22:51;;;;;;;23.83;19.38;;;358.60;2329.60;;;;;;5066903;28;20024;-85
2021/05/20 01:25:17;;;;;;;24.92;17.55;;;358.50;2329.60;;;;;;5061013;28;20028;-86
2021/05/20 01:27:45;;;;;;;24.15;18.77;;;358.50;2329.60;;;;;;5082372;28;20028;-86
2021/05/20 01:30:11;;;;;;;23.77;19.00;;;358.50;2329.60;;;;;;5058742;28;20495;-87
2021/05/20 01:32:37;;;;;;;28.88;20.60;;;358.50;2329.60;;;;;;5071878;28;20074;-86
2021/05/20 01:35:05;;;;;;;24.60;18.75;;;358.50;2329.60;;;;;;5072515;28;20102;-86
2021/05/20 01:37:31;;;;;;;26.50;19.08;;;358.50;2329.60;;;;;;5061208;28;20154;-87
2021/05/20 01:39:57;;;;;;;27.63;18.55;;;358.50;2329.60;;;;;;5069208;28;20047;-86
2021/05/20 01:42:23;;;;;;;27.08;18.48;;;358.60;2329.60;;;;;;5063635;28;20031;-87
2021/05/20 01:44:49;;;;;;;25.55;19.48;;;358.60;2329.60;;;;;;5068342;28;20024;-86
2021/05/20 01:47:16;;;;;;;23.05;17.10;;;358.50;2329.60;;;;;;5057995;28;20094;-87
2021/05/20 01:49:51;;;;;;;24.63;19.38;;;358.50;2329.60;;;;;;5077598;28;20131;-85
2021/05/20 01:52:18;;;;;;;25.67;19.23;;;358.40;2329.60;;;;;;5071144;28;20028;-85
2021/05/20 01:54:44;;;;;;;26.25;18.75;;;358.40;2329.60;;;;;;5072986;28;20031;-85
2021/05/20 01:57:10;;;;;;;22.67;18.48;;;358.40;2329.60;;;;;;5071319;28;20025;-86
2021/05/20 01:59:35;;;;;;;23.73;17.15;;;358.40;2329.60;;;;;;5072887;28;20052;-87
2021/05/20 02:02:01;;;;;;;24.10;17.30;;;358.40;2329.60;;;;;;5081282;28;20039;-85
2021/05/20 02:04:27;;;;;;;24.20;16.58;;;333.70;2329.60;;;;;;5071453;28;20032;-86
2021/05/20 02:06:52;;;;;;;23.02;18.10;;;333.70;2329.60;;;;;;5079521;28;20024;-86
2021/05/20 02:09:18;;;;;;;24.60;18.55;;;333.70;2329.60;;;;;;5071704;28;20021;-86
2021/05/20 02:11:44;;;;;;;28.13;18.95;;;358.40;2329.60;;;;;;5071253;28;20356;-86
2021/05/20 02:14:09;;;;;;;24.77;17.75;;;333.70;2329.60;;;;;;5071532;28;20150;-87
2021/05/20 02:16:35;;;;;;;21.30;15.98;;;333.70;2329.60;;;;;;5075460;28;20383;-86
2021/05/20 02:19:01;;;;;;;24.75;17.48;;;333.70;2329.60;;;;;;5070721;28;20132;-84
2021/05/20 02:21:27;;;;;;;24.10;16.75;;;333.70;2329.60;;;;;;5072110;28;20498;-86
2021/05/20 02:23:52;;;;;;;22.17;15.73;;;333.70;2329.60;;;;;;5071918;28;20021;-86
2021/05/20 02:26:18;;;;;;;22.40;16.77;;;333.70;2329.60;;;;;;5070983;28;20028;-85
2021/05/20 02:28:44;;;;;;;21.75;18.00;;;358.40;2329.60;;;;;;5069460;28;20513;-86
2021/05/20 02:31:10;;;;;;;21.08;16.10;;;358.40;2329.60;;;;;;5073551;28;20102;-86
2021/05/20 02:33:36;;;;;;;25.08;18.08;;;358.40;2329.60;;;;;;5058834;28;20036;-85
2021/05/20 02:36:02;;;;;;;22.55;17.30;;;333.70;2329.60;;;;;;5072659;28;20021;-86
2021/05/20 02:38:28;;;;;;;27.55;18.70;;;333.60;2329.60;;;;;;5058525;28;20024;-85
2021/05/20 02:40:54;;;;;;;24.75;18.05;;;333.60;2329.60;;;;;;5075976;28;20020;-85
2021/05/20 02:43:20;;;;;;;24.23;18.73;;;333.60;2329.60;;;;;;5073260;28;20045;-85
2021/05/20 02:45:45;;;;;;;28.33;18.63;;;333.60;2329.60;;;;;;5060649;28;20106;-85
2021/05/20 02:48:11;;;;;;;26.55;20.40;;;333.50;2329.60;;;;;;5075761;28;20024;-85
2021/05/20 02:50:37;;;;;;;26.27;18.70;;;333.50;2329.60;;;;;;5056944;28;20050;-84
2021/05/20 02:53:03;;;;;;;27.15;19.85;;;333.50;2329.60;;;;;;5064183;28;20037;-85
2021/05/20 02:55:28;;;;;;;29.98;20.58;;;333.50;2329.60;;;;;;5086445;28;20070;-85
2021/05/20 02:57:57;;;;;;;26.60;18.80;;;333.50;2329.60;;;;;;5074002;28;20023;-85
2021/05/20 03:00:28;;;;;;;23.08;17.35;;;333.50;2329.60;;;;;;5084773;28;20094;-86
2021/05/20 03:02:54;;;;;;;25.83;16.55;;;333.50;2329.60;;;;;;5054653;28;20115;-86
2021/05/20 03:05:20;;;;;;;26.42;17.83;;;333.50;2329.60;;;;;;5074264;28;20078;-86
2021/05/20 03:07:46;;;;;;;21.63;16.42;;;333.40;2329.60;;;;;;5060887;28;20050;-86
2021/05/20 03:10:13;;;;;;;26.02;18.17;;;333.40;2329.60;;;;;;5074261;28;20029;-87
2021/05/20 03:12:39;;;;;;;28.08;18.13;;;333.40;2329.60;;;;;;5084584;28;20061;-86
2021/05/20 03:15:06;;;;;;;25.27;17.40;;;333.50;2329.60;;;;;;5054430;28;20067;-86
2021/05/20 03:17:33;;;;;;;29.80;20.67;;;333.50;2329.60;;;;;;5073856;28;20020;-85
2021/05/20 03:19:59;;;;;;;24.75;18.10;;;333.40;2329.60;;;;;;5074130;28;20458;-86
2021/05/20 03:22:25;;;;;;;26.50;17.83;;;333.40;2329.60;;;;;;5062721;28;20796;-85
2021/05/20 03:24:50;;;;;;;22.15;17.23;;;333.40;2329.60;;;;;;5088035;28;20085;-86
2021/05/20 03:27:20;;;;;;;26.30;19.02;;;333.50;2329.60;;;;;;5071751;28;20044;-81
2021/05/20 03:29:45;;;;;;;27.88;19.67;;;333.40;2329.60;;;;;;5067671;28;20033;-87
2021/05/20 03:32:11;;;;;;;26.80;19.55;;;333.50;2329.60;;;;;;5094480;28;20052;-86
2021/05/20 03:34:37;;;;;;;29.20;21.15;;;333.50;2329.60;;;;;;5081416;28;20059;-86
2021/05/20 03:37:03;;;;;;;26.85;19.65;;;333.50;2329.60;;;;;;5076622;28;20099;-85
2021/05/20 03:39:30;;;;;;;29.10;19.00;;;333.50;2329.60;;;;;;5074952;28;20079;-86
2021/05/20 03:41:56;;;;;;;26.92;19.75;;;333.40;2329.60;;;;;;5072201;28;20035;-86
2021/05/20 03:44:22;;;;;;;24.73;19.23;;;333.50;2329.60;;;;;;5079836;28;20025;-86
2021/05/20 03:46:48;;;;;;;24.60;18.48;;;333.50;2329.60;;;;;;5073959;28;20028;-86
2021/05/20 03:49:14;;;;;;;23.45;19.08;;;333.50;2329.60;;;;;;5076036;28;20027;-84
2021/05/20 03:51:39;;;;;;;29.75;20.45;;;333.40;2329.60;;;;;;5073023;28;20040;-87
2021/05/20 03:54:06;;;;;;;25.70;19.67;;;333.40;2329.60;;;;;;5059176;28;20040;-85
2021/05/20 03:56:31;;;;;;;25.23;16.98;;;333.40;2329.60;;;;;;5063560;28;20075;-86
2021/05/20 03:58:58;;;;;;;24.27;19.15;;;333.50;2329.60;;;;;;5055466;28;20029;-85
2021/05/20 04:01:23;;;;;;;24.73;18.85;;;333.50;2329.60;;;;;;5074094;28;20126;-85
2021/05/20 04:03:49;;;;;;;30.15;17.30;;;333.50;2329.60;;;;;;5060330;28;20475;-84
2021/05/20 04:06:15;;;;;;;27.23;17.65;;;333.50;2329.60;;;;;;5066278;28;20041;-84
2021/05/20 04:08:40;;;;;;;21.58;17.00;;;333.50;2329.60;;;;;;5065568;28;20051;-84
2021/05/20 04:11:06;;;;;;;24.80;17.10;;;333.50;2329.60;;;;;;5086581;28;20379;-85
2021/05/20 04:13:42;;;;;;;23.75;17.40;;;333.50;2329.60;;;;;;5074292;28;20096;-85
2021/05/20 04:16:12;;;;;;;21.52;16.23;;;333.40;2329.60;;;;;;5072709;28;20039;-85
2021/05/20 04:18:38;;;;;;;19.58;15.30;;;333.30;2329.60;;;;;;5073944;28;20032;-85
2021/05/20 04:21:05;;;;;;;19.13;15.13;;;333.30;2329.60;;;;;;5086112;28;20056;-84
2021/05/20 04:23:31;;;;;;;17.95;14.18;;;333.30;2329.60;;;;;;5058126;28;20500;-83
2021/05/20 04:25:57;;;;;;;19.27;15.55;;;333.30;2329.60;;;;;;5062295;28;20387;-83
2021/05/20 04:28:23;;;;;;;18.02;14.38;;;333.30;2329.60;;;;;;5069774;28;20032;-83
2021/05/20 04:30:49;;;;;;;18.05;15.27;;;333.30;2329.60;;;;;;5061004;28;20523;-84
2021/05/20 04:33:15;;;;;;;16.55;14.48;;;333.30;2329.60;;;;;;5061014;28;20543;-84
2021/05/20 04:35:41;;;;;;;19.23;15.13;;;333.30;2329.60;;;;;;5064281;28;20040;-85
2021/05/20 04:38:08;;;;;;;17.67;13.52;;;333.30;2329.60;;;;;;5074988;28;20036;-84
2021/05/20 04:40:36;;;;;;;16.90;13.45;;;333.40;2329.60;;;;;;5083281;28;20029;-84
2021/05/20 04:43:02;;;;;;;17.88;13.93;;;333.50;2329.60;;;;;;5072924;28;20108;-84
2021/05/20 04:45:28;;;;;;;16.42;12.45;;;333.50;2329.60;;;;;;5074244;28;20031;-83
2021/05/20 04:47:54;;;;;;;19.10;14.10;;;333.50;2329.60;;;;;;5076182;28;20021;-83
2021/05/20 04:50:20;;;;;;;15.40;12.63;;;333.50;2329.60;;;;;;5061189;28;20545;-83
2021/05/20 04:52:46;;;;;;;14.68;12.20;;;333.50;2329.60;;;;;;5090403;28;20071;-83
2021/05/20 04:55:14;;;;;;;14.60;12.10;;;333.50;2329.60;;;;;;5068429;28;20024;-83
2021/05/20 04:57:41;;;;;;;16.30;12.82;;;333.50;2329.60;;;;;;5077623;28;20024;-83
2021/05/20 05:00:09;;;;;;;16.60;11.50;;;333.60;2329.60;;;;;;5064799;28;20087;-83
2021/05/20 05:02:35;;;;;;;15.82;12.52;;;333.60;2329.60;;;;;;5069345;28;20025;-83
2021/05/20 05:05:01;;;;;;;14.70;11.70;;;333.70;2329.60;;;;;;5063146;28;20031;-83
2021/05/20 05:07:27;;;;;;;14.32;12.52;;;333.70;2329.60;;;;;;5070208;28;20033;-83
2021/05/20 05:09:52;;;;;;;16.45;13.63;;;333.70;2329.60;;;;;;5061140;28;20036;-83
2021/05/20 05:12:18;;;;;;;14.20;11.50;;;333.70;2329.60;;;;;;5064436;28;20025;-84
2021/05/20 05:14:44;;;;;;;17.40;12.63;;;333.70;2329.60;;;;;;5065125;28;20020;-83
2021/05/20 05:17:10;;;;;;;15.23;12.32;;;333.70;2329.60;;;;;;5067785;28;20032;-83
2021/05/20 05:19:36;;;;;;;13.55;11.95;;;333.70;2329.60;;;;;;5064825;28;20133;-84
2021/05/20 05:22:03;;;;;;;14.98;11.45;;;333.70;2329.60;;;;;;5065967;28;20029;-84
2021/05/20 05:24:29;;;;;;;17.45;12.35;;;358.40;2329.60;;;;;;5063341;28;20055;-83
2021/05/20 05:26:55;;;;;;;13.45;11.55;;;358.40;2329.60;;;;;;5064275;28;20111;-83
2021/05/20 05:29:21;;;;;;;16.40;11.45;;;358.50;2329.60;;;;;;5061587;28;20029;-82
2021/05/20 05:31:47;;;;;;;14.57;11.18;;;358.60;2329.60;;;;;;5064241;28;20045;-83
2021/05/20 05:34:13;;;;;;;11.70;9.60;;;358.70;2329.60;;;;;;5062311;28;20536;-84
2021/05/20 05:36:39;;;;;;;11.27;9.35;;;358.70;2329.60;;;;;;5069368;28;20124;-83
2021/05/20 05:39:05;;;;;;;9.27;8.23;;;358.80;2329.60;;;;;;5066244;28;20048;-84
2021/05/20 05:41:31;;;;;;;11.00;9.07;;;358.90;2329.60;;;;;;5071556;28;20506;-84
2021/05/20 05:43:57;;;;;;;15.07;9.50;;;358.90;2329.60;;;;;;5075314;28;20021;-84
2021/05/20 05:46:22;;;;;;;10.40;9.00;;;358.80;2329.60;;;;;;5074693;28;20108;-85
2021/05/20 05:48:49;;;;;;;12.90;9.10;;;358.80;2329.60;;;;;;5061017;28;20052;-82
2021/05/20 05:51:19;;;;;;;14.32;10.25;;;358.90;2329.60;;;;;;5069182;28;20025;-86
2021/05/20 05:53:45;;;;;;;8.57;7.57;;;358.80;2329.60;;;;;;5067316;28;20024;-85
2021/05/20 05:56:11;;;;;;;11.00;8.95;;;358.80;2329.60;;;;;;5072159;28;20031;-85
2021/05/20 05:58:36;;;;;;;12.00;8.57;;;358.80;2329.60;;;;;;5071397;28;20474;-86
2021/05/20 06:01:03;;;;;;;9.63;8.18;;;358.90;2329.60;;;;;;5071161;28;20127;-86
2021/05/20 06:03:29;;;;;;;10.55;8.38;;;358.90;2329.60;;;;;;5072415;28;20483;-85
2021/05/20 06:05:55;;;;;;;9.02;7.63;;;358.90;2329.60;;;;;;5070447;28;20033;-85
2021/05/20 06:08:21;;;;;;;8.43;6.88;;;358.80;2329.60;;;;;;5072498;28;20024;-85
2021/05/20 06:10:47;;;;;;;10.20;7.75;;;359.00;2329.60;;;;;;5070814;28;20479;-85
2021/05/20 06:13:13;;;;;;;8.40;6.95;;;359.00;2329.60;;;;;;5052688;28;20028;-86
2021/05/20 06:15:38;;;;;;;10.38;6.60;;;358.90;2329.60;;;;;;5055904;28;20031;-85
2021/05/20 06:18:05;;;;;;;7.63;6.13;;;359.10;2329.60;;;;;;5076055;28;20103;-85
2021/05/20 06:20:31;;;;;;;7.28;5.85;;;384.00;2329.60;;;;;;5075593;28;20020;-85
2021/05/20 06:22:56;;;;;;;9.18;5.93;;;384.00;2329.60;;;;;;5072120;28;20028;-85
2021/05/20 06:25:23;;;;;;;5.90;4.95;;;384.00;2329.60;;;;;;5078162;28;20029;-85
2021/05/20 06:27:49;;;;;;;10.95;5.50;;;384.00;2329.60;;;;;;5070387;28;20048;-84
2021/05/20 06:30:16;;;;;;;5.63;4.63;;;359.20;2329.60;;;;;;5068083;28;20063;-85
2021/05/20 06:32:41;;;;;;;7.22;4.80;;;384.10;2329.60;;;;;;5070390;28;20027;-85
2021/05/20 06:35:08;;;;;;;7.90;5.30;;;384.20;2329.60;;;;;;5093367;28;20399;-84
2021/05/20 06:37:34;;;;;;;6.75;5.00;;;384.20;2329.60;;;;;;5065569;28;20029;-85
2021/05/20 06:40:00;;;;;;;5.78;4.45;;;384.10;2329.60;;;;;;5072384;28;20020;-86
2021/05/20 06:42:26;;;;;;;11.10;5.15;;;384.20;2329.60;;;;;;5064982;28;20037;-85
2021/05/20 06:44:52;;;;;;;13.43;5.45;;;384.40;2329.60;;;;;;5067825;28;20029;-84
2021/05/20 06:47:18;;;;;;;7.20;4.18;;;384.80;2329.60;;;;;;5072137;28;20480;-85
2021/05/20 06:49:43;;;;;;;4.63;3.72;;;409.60;2355.20;;;;;;5071715;28;20480;-84
2021/05/20 06:52:09;;;;;;;5.90;4.50;;;409.80;2355.20;;;;;;5073846;28;20028;-84
2021/05/20 06:54:35;;;;;;;4.78;3.35;;;410.00;2355.20;;;;;;5075481;28;20096;-84
2021/05/20 06:57:07;;;;;;;10.52;4.80;;;410.00;2355.20;;;;;;5062896;28;20541;-84
2021/05/20 07:00:02;;;;;;;5.13;3.38;;;409.80;2355.20;;;;;;5065852;28;20074;-83
2021/05/20 07:02:29;;;;;;;5.35;3.22;;;384.90;2329.60;;;;;;5070877;28;20036;-83
2021/05/20 07:04:56;;;;;;;4.10;3.47;;;384.90;2329.60;;;;;;5066875;28;20073;-83
2021/05/20 07:07:24;;;;;;;4.65;3.53;;;409.90;2355.20;;;;;;5065539;28;20024;-83
2021/05/20 07:09:50;;;;;;;4.55;3.00;;;410.10;2355.20;;;;;;5067258;28;20036;-83
2021/05/20 07:12:19;;;;;;;5.03;2.78;;;410.10;2355.20;;;;;;5066530;28;20033;-83
2021/05/20 07:14:45;;;;;;;5.25;2.92;;;409.80;2355.20;;;;;;5078361;28;20025;-84
2021/05/20 07:17:11;;;;;;;6.22;3.30;;;409.60;2355.20;;;;;;5067857;28;20555;-84
2021/05/20 07:19:37;;;;;;;6.60;2.92;;;384.60;2329.60;;;;;;5070512;28;20033;-85
2021/05/20 07:22:04;;;;;;;5.13;2.97;;;384.40;2329.60;;;;;;5077710;28;20024;-85
2021/05/20 07:24:31;;;;;;;5.43;3.92;;;384.60;2329.60;;;;;;5065125;28;20033;-84
2021/05/20 07:26:57;;;;;;;3.92;3.05;;;384.80;2329.60;;;;;;5067478;28;20068;-85
2021/05/20 07:29:23;;;;;;;4.47;3.53;;;384.40;2329.60;;;;;;5071892;28;20056;-85
2021/05/20 07:31:49;;;;;;;4.97;3.40;;;384.20;2329.60;;;;;;5065189;28;20556;-83
2021/05/20 07:34:15;;;;;;;6.18;5.25;;;384.30;2329.60;;;;;;5066638;28;20029;-83
2021/05/20 07:36:41;;;;;;;8.25;3.30;;;384.50;2329.60;;;;;;5067920;28;20012;-83
2021/05/20 07:39:07;;;;;;;5.20;3.50;;;384.50;2329.60;;;;;;5065935;28;20028;-84
2021/05/20 07:41:34;;;;;;;4.70;3.65;;;384.30;2329.60;;;;;;5067934;28;20395;-84
2021/05/20 07:44:01;;;;;;;3.78;2.80;;;384.40;2329.60;;;;;;5062163;28;20479;-83
2021/05/20 07:53:33;;;;;;;4.78;3.00;;;384.70;2329.60;;;;;;5099057;27;20363;-82
2021/05/20 07:55:59;;;;;;;3.53;2.58;;;384.90;2329.60;;;;;;5110066;28;20033;-83
2021/05/20 07:58:25;;;;;;;5.82;2.30;;;384.80;2329.60;;;;;;5090334;28;20024;-82
2021/05/20 08:00:51;;;;;;;9.25;4.05;;;384.70;2329.60;;;;;;5094689;28;20021;-82
2021/05/20 08:11:17;;;;;;;6.57;3.80;;;384.10;2329.60;;;;;;5097048;28;20073;-82
2021/05/20 08:13:44;;;;;;;4.53;3.08;;;384.50;2329.60;;;;;;5102618;28;20040;-82
2021/05/20 08:16:10;;;;;;;4.15;2.95;;;384.90;2329.60;;;;;;5099165;28;20032;-82
2021/05/20 08:18:36;;;;;;;3.88;2.65;;;410.00;2355.20;;;;;;5096930;28;20020;-82
2021/05/20 08:21:04;;;;;;;5.93;2.83;;;384.90;2329.60;;;;;;5092374;28;20029;-83
2021/05/20 08:23:34;;;;;;;5.70;3.13;;;384.70;2329.60;;;;;;5098490;28;20024;-83
2021/05/20 08:26:01;;;;;;;7.38;3.55;;;384.60;2329.60;;;;;;5101432;28;20020;-82
2021/05/20 08:28:27;;;;;;;5.88;2.28;;;384.60;2329.60;;;;;;5096158;28;20055;-82
2021/05/20 08:30:53;;;;;;;3.38;2.45;;;384.90;2329.60;;;;;;5094611;28;20063;-83
2021/05/20 08:33:20;;;;;;;7.70;4.00;;;409.90;2355.20;;;;;;5090101;28;20024;-83
2021/05/20 08:35:46;;;;;;;4.68;2.80;;;409.90;2355.20;;;;;;5097973;28;20361;-83
2021/05/20 08:38:14;;;;;;;8.52;3.50;;;410.00;2355.20;;;;;;5101350;28;20035;-84
2021/05/20 08:40:40;;;;;;;5.75;4.07;;;409.70;2355.20;;;;;;5093234;28;20020;-82
2021/05/20 08:43:06;;;;;;;5.53;3.50;;;384.90;2329.60;;;;;;5088619;28;20029;-83
2021/05/20 08:45:33;;;;;;;4.22;2.80;;;384.70;2329.60;;;;;;5087899;28;20062;-83
2021/05/20 08:48:00;;;;;;;3.60;2.38;;;384.40;2329.60;;;;;;5090233;28;20024;-83
2021/05/20 08:50:29;;;;;;;5.40;2.47;;;384.40;2329.60;;;;;;5106596;27;20094;-83
2021/05/20 08:52:55;;;;;;;3.88;2.08;;;384.40;2329.60;;;;;;5085824;28;20107;-84
2021/05/20 08:55:30;;;;;;;3.60;2.38;;;384.40;2329.60;;;;;;5112726;28;20023;-84
2021/05/20 08:57:58;;;;;;;2.33;2.05;;;384.60;2329.60;;;;;;5089943;28;20111;-84
2021/05/20 09:00:25;;;;;;;5.40;2.10;;;384.70;2329.60;;;;;;5095349;28;20024;-83
2021/05/20 09:02:51;;;;;;;3.53;1.85;;;409.70;2355.20;;;;;;5091611;28;20029;-83
2021/05/20 09:05:20;;;;;;;3.53;2.28;;;409.80;2355.20;;;;;;5078011;28;20044;-83
2021/05/20 09:07:54;;;;;;;3.22;2.08;;;409.80;2355.20;;;;;;5080441;28;20059;-83
2021/05/20 09:10:27;;;;;;;3.17;2.55;;;409.60;2355.20;;;;;;5076726;28;20024;-85
2021/05/20 09:12:59;;;;;;;3.10;1.98;;;384.70;2329.60;;;;;;5088060;28;20514;-85
2021/05/20 09:15:31;;;;;;;3.90;2.40;;;384.60;2329.60;;;;;;5085766;28;20024;-85
2021/05/20 09:18:12;;;;;;;3.63;2.72;;;384.50;2329.60;;;;;;5075669;28;20479;-83
2021/05/20 09:20:54;;;;;;;3.70;2.50;;;384.30;2329.60;;;;;;5078442;28;20048;-83
2021/05/20 09:23:22;;;;;;;5.32;3.67;;;384.20;2329.60;;;;;;5077782;28;20064;-82
2021/05/20 09:25:50;;;;;;;4.95;3.15;;;384.10;2329.60;;;;;;5082750;28;20403;-83
2021/05/20 09:28:29;;;;;;;5.68;4.13;;;384.30;2329.60;;;;;;5081471;28;20074;-84
2021/05/20 09:30:55;;;;;;;6.88;4.88;;;384.20;2329.60;;;;;;5066964;28;20094;-84
2021/05/20 09:33:21;;;;;;;6.97;5.38;;;384.00;2329.60;;;;;;5081326;28;20436;-83
2021/05/20 09:35:49;;;;;;;6.75;4.78;;;359.00;2329.60;;;;;;5080001;28;20017;-82
2021/05/20 09:38:17;;;;;;;7.90;6.32;;;358.90;2329.60;;;;;;5076560;28;20486;-82
2021/05/20 09:40:48;;;;;;;8.55;4.88;;;358.70;2329.60;;;;;;5085074;28;20024;-84
2021/05/20 09:43:21;;;;;;;6.68;4.80;;;358.50;2329.60;;;;;;5082037;28;20024;-82
2021/05/20 09:45:57;;;;;;;8.60;6.70;;;358.40;2329.60;;;;;;5078401;28;20020;-82
2021/05/20 09:48:27;;;;;;;10.38;7.03;;;358.40;2329.60;;;;;;5080768;28;20028;-82
2021/05/20 09:50:55;;;;;;;9.40;7.43;;;333.70;2329.60;;;;;;5070370;28;20033;-83
2021/05/20 09:53:23;;;;;;;8.40;6.75;;;333.70;2329.60;;;;;;5066887;28;20049;-83
2021/05/20 09:55:53;;;;;;;8.90;6.80;;;333.60;2329.60;;;;;;5076055;28;20093;-84
2021/05/20 09:58:22;;;;;;;11.63;8.65;;;333.50;2329.60;;;;;;5072921;28;20119;-83
2021/05/20 10:00:49;;;;;;;9.90;8.18;;;333.40;2329.60;;;;;;5074056;28;20040;-85
2021/05/20 10:03:16;;;;;;;11.63;8.65;;;333.30;2329.60;;;;;;5071748;28;20104;-85
2021/05/20 10:05:44;;;;;;;12.60;9.02;;;333.30;2329.60;;;;;;5075909;28;20028;-84
2021/05/20 10:08:12;;;;;;;12.13;9.70;;;333.20;2329.60;;;;;;5080707;28;20039;-84
2021/05/20 10:10:41;;;;;;;12.23;9.73;;;333.10;2329.60;;;;;;5058937;28;20029;-85
2021/05/20 10:13:09;;;;;;;14.02;10.93;;;333.20;2329.60;;;;;;5076063;28;20020;-84
2021/05/20 10:15:38;;;;;;;12.70;10.35;;;333.20;2329.60;;;;;;5075671;28;20063;-83
2021/05/20 10:18:09;;;;;;;15.00;11.20;;;333.30;2329.60;;;;;;5076771;28;20030;-83
2021/05/20 10:20:36;;;;;;;14.98;11.20;;;333.30;2329.60;;;;;;5080535;28;20033;-82
2021/05/20 10:23:09;;;;;;;13.27;11.15;;;333.40;2329.60;;;;;;5069805;28;20043;-83
2021/05/20 10:25:36;;;;;;;13.00;10.48;;;333.40;2329.60;;;;;;5080319;28;20020;-82
2021/05/20 10:28:04;;;;;;;14.52;11.55;;;333.40;2329.60;;;;;;5077317;28;20077;-82
2021/05/20 10:30:31;;;;;;;14.75;11.68;;;333.40;2329.60;;;;;;5082015;28;20085;-82
2021/05/20 10:32:58;;;;;;;13.27;10.65;;;333.40;2329.60;;;;;;5071870;28;20020;-81
2021/05/20 10:35:45;;;;;;;13.10;11.35;;;333.50;2329.60;;;;;;5068646;28;20024;-82
2021/05/20 10:38:12;;;;;;;;;;;333.50;2329.60;;;;;;5065191;28;20028;-83
2021/05/20 10:40:38;;;;;;;13.40;10.77;;;333.50;2329.60;;;;;;5064776;28;19991;-81
2021/05/20 10:43:08;;;;;;;13.82;10.23;;;333.50;2329.60;;;;;;5075078;28;20060;-86
2021/05/20 10:45:35;;;;;;;12.73;10.98;;;333.50;2329.60;;;;;;5073689;28;20157;-85
2021/05/20 10:48:04;;;;;;;14.95;11.15;;;333.50;2329.60;;;;;;5076312;28;20033;-86
2021/05/20 10:50:55;;;;;;;15.38;12.73;;;333.40;2329.60;;;;;;5077815;28;20036;-82
2021/05/20 10:53:47;;;;;;;14.65;11.60;;;333.30;2329.60;;;;;;5075199;28;20044;-81
2021/05/20 10:56:15;;;;;;;18.65;13.50;;;333.50;2329.60;;;;;;5074206;28;20025;-85
2021/05/20 10:58:47;;;;;;;19.15;15.30;;;333.40;2329.60;;;;;;5073271;28;20035;-85
2021/05/20 11:01:25;;;;;;;18.20;15.05;;;333.50;2329.60;;;;;;5077573;28;20027;-88
2021/05/20 11:03:54;;;;;;;16.15;13.35;;;333.50;2329.60;;;;;;5078589;28;20078;-87
2021/05/20 11:06:21;;;;;;;21.17;14.60;;;333.50;2329.60;;;;;;5075750;28;20056;-87
2021/05/20 11:08:47;;;;;;;20.60;15.27;;;333.70;2329.60;;;;;;5077807;28;20023;-87
2021/05/20 11:11:31;;;;;;;17.00;13.63;;;358.40;2329.60;;;;;;5080193;28;20067;-87
2021/05/20 11:14:04;;;;;;;18.67;15.77;;;358.50;2329.60;;;;;;5089748;28;20088;-86
2021/05/20 11:16:35;;;;;;;17.40;13.65;;;358.60;2329.60;;;;;;5080905;28;20020;-78
2021/05/20 11:19:16;;;;;;;14.70;13.07;;;358.70;2329.60;;;;;;5076601;28;20530;-79
2021/05/20 11:22:03;;;;;;;13.40;11.15;;;358.80;2329.60;;;;;;5090049;28;20081;-82
2021/05/20 11:24:32;;;;;;;15.52;13.45;;;358.70;2329.60;;;;;;5077065;28;20025;-81
2021/05/20 11:26:59;;;;;;;14.00;12.00;;;358.70;2329.60;;;;;;5071559;28;20059;-81
2021/05/20 11:29:26;;;;;;;14.85;12.60;;;358.70;2329.60;;;;;;5081664;28;20108;-82
2021/05/20 11:32:00;;;;;;;17.55;12.07;;;358.70;2329.60;;;;;;5081222;28;20031;-82
2021/05/20 11:34:49;;;;;;;12.40;10.07;;;358.60;2329.60;;;;;;5081406;28;20490;-79
2021/05/20 11:37:27;;;;;;;14.43;10.73;;;358.60;2329.60;;;;;;5083433;28;20051;-78
2021/05/20 11:39:52;;;;;;;14.18;10.85;;;358.70;2329.60;;;;;;5079871;28;20017;-82
2021/05/20 11:42:33;;;;;;;13.27;10.10;;;358.70;2329.60;;;;;;5069382;28;20035;-81
2021/05/20 11:45:01;;;;;;;14.13;11.48;;;358.80;2329.60;;;;;;5073243;28;20029;-79
2021/05/20 11:47:27;;;;;;;11.18;8.68;;;358.90;2329.60;;;;;;5071417;28;20063;-77
2021/05/20 11:49:54;;;;;;;11.60;7.63;;;358.90;2329.60;;;;;;5078242;28;20028;-78
2021/05/20 11:52:20;;;;;;;10.05;7.38;;;358.90;2329.60;;;;;;5073634;28;20076;-78
2021/05/20 11:54:51;;;;;;;9.00;8.00;;;358.90;2329.60;;;;;;5079287;28;20086;-79
2021/05/20 11:57:23;;;;;;;8.98;7.45;;;358.90;2329.60;;;;;;5074254;28;20035;-78
2021/05/20 11:59:51;;;;;;;9.75;7.18;;;359.10;2329.60;;;;;;5085786;28;20013;-78
2021/05/20 12:02:23;;;;;;;9.95;7.40;;;359.20;2329.60;;;;;;5075626;28;20025;-79
2021/05/20 12:04:56;;;;;;;9.98;8.90;;;384.00;2329.60;;;;;;5070649;28;20035;-78
2021/05/20 12:07:27;;;;;;;12.70;8.85;;;384.00;2329.60;;;;;;5096774;28;20024;-78
2021/05/20 12:09:54;;;;;;;10.18;7.90;;;384.00;2329.60;;;;;;5082708;28;20384;-78
2021/05/20 12:12:21;;;;;;;10.00;7.55;;;384.00;2329.60;;;;;;5085988;28;20506;-77
2021/05/20 12:14:48;;;;;;;9.38;7.03;;;384.00;2329.60;;;;;;5085008;28;20016;-77
2021/05/20 12:17:22;;;;;;;9.70;7.85;;;384.00;2329.60;;;;;;5080242;28;20021;-77
2021/05/20 12:19:47;;;;;;;9.88;8.60;;;384.00;2329.60;;;;;;5078323;28;20492;-77
2021/05/20 12:22:40;;;;;;;7.95;6.97;;;384.00;2329.60;;;;;;5087381;27;20127;-78
2021/05/20 12:25:11;;;;;;;9.15;7.32;;;384.00;2329.60;;;;;;5069827;28;20111;-78